sensor_id;sensor_type;location;lat;lon;timestamp;temperature;humidity
32147;DHT22;32190;49.112;8.598;2022-11-14T00:11:13;11.50;63.50
32147;DHT22;32190;49.112;8.598;2022-11-14T00:17:04;11.50;63.50
32147;DHT22;32190;49.112;8.598;2022-11-14T00:22:54;11.50;63.50
32147;DHT22;32190;49.112;8.598;2022-11-14T00:28:45;11.50;63.50
32147;DHT22;32190;49.112;8.598;2022-11-14T00:34:36;11.50;63.50
32147;DHT22;32190;49.112;8.598;2022-11-14T00:40:35;11.50;63.50
32147;DHT22;32190;49.112;8.598;2022-11-14T00:46:26;11.50;63.40
32147;DHT22;32190;49.112;8.598;2022-11-14T00:52:22;11.50;63.40
32147;DHT22;32190;49.112;8.598;2022-11-14T00:58:13;11.50;63.40
32147;DHT22;32190;49.112;8.598;2022-11-14T01:04:04;11.50;63.30
32147;DHT22;32190;49.112;8.598;2022-11-14T01:09:55;11.50;63.20
32147;DHT22;32190;49.112;8.598;2022-11-14T01:15:49;11.50;63.20
32147;DHT22;32190;49.112;8.598;2022-11-14T01:21:41;11.40;63.10
32147;DHT22;32190;49.112;8.598;2022-11-14T01:27:32;11.40;63.10
32147;DHT22;32190;49.112;8.598;2022-11-14T01:33:22;11.40;63.00
32147;DHT22;32190;49.112;8.598;2022-11-14T01:39:13;11.40;63.00
32147;DHT22;32190;49.112;8.598;2022-11-14T02:15:45;11.30;62.90
32147;DHT22;32190;49.112;8.598;2022-11-14T02:21:36;11.30;62.90
32147;DHT22;32190;49.112;8.598;2022-11-14T02:27:27;11.30;63.00
32147;DHT22;32190;49.112;8.598;2022-11-14T02:33:18;11.30;63.00
32147;DHT22;32190;49.112;8.598;2022-11-14T02:39:09;11.30;63.00
32147;DHT22;32190;49.112;8.598;2022-11-14T02:45:00;11.30;62.90
32147;DHT22;32190;49.112;8.598;2022-11-14T02:50:50;11.20;63.00
32147;DHT22;32190;49.112;8.598;2022-11-14T02:56:43;11.20;63.10
32147;DHT22;32190;49.112;8.598;2022-11-14T03:02:34;11.20;63.10
32147;DHT22;32190;49.112;8.598;2022-11-14T03:08:25;11.20;63.00
32147;DHT22;32190;49.112;8.598;2022-11-14T03:14:15;11.20;63.00
32147;DHT22;32190;49.112;8.598;2022-11-14T03:20:06;11.20;62.90
32147;DHT22;32190;49.112;8.598;2022-11-14T03:26:02;11.20;62.90
32147;DHT22;32190;49.112;8.598;2022-11-14T03:31:52;11.20;63.00
32147;DHT22;32190;49.112;8.598;2022-11-14T03:37:43;11.10;63.10
32147;DHT22;32190;49.112;8.598;2022-11-14T03:43:34;11.00;63.10
32147;DHT22;32190;49.112;8.598;2022-11-14T03:49:24;11.00;63.20
32147;DHT22;32190;49.112;8.598;2022-11-14T03:55:15;11.00;63.30
32147;DHT22;32190;49.112;8.598;2022-11-14T04:01:06;10.90;63.40
32147;DHT22;32190;49.112;8.598;2022-11-14T04:06:57;10.90;63.40
32147;DHT22;32190;49.112;8.598;2022-11-14T04:12:49;10.90;63.50
32147;DHT22;32190;49.112;8.598;2022-11-14T04:18:39;10.80;63.50
32147;DHT22;32190;49.112;8.598;2022-11-14T04:24:30;10.80;63.60
32147;DHT22;32190;49.112;8.598;2022-11-14T04:30:21;10.70;63.60
32147;DHT22;32190;49.112;8.598;2022-11-14T04:36:12;10.70;63.60
32147;DHT22;32190;49.112;8.598;2022-11-14T04:42:03;10.70;63.30
32147;DHT22;32190;49.112;8.598;2022-11-14T04:47:55;10.70;63.20
32147;DHT22;32190;49.112;8.598;2022-11-14T04:53:46;10.60;63.30
32147;DHT22;32190;49.112;8.598;2022-11-14T05:29:38;10.40;63.50
32147;DHT22;32190;49.112;8.598;2022-11-14T05:35:29;10.40;63.40
32147;DHT22;32190;49.112;8.598;2022-11-14T05:41:20;10.30;63.30
32147;DHT22;32190;49.112;8.598;2022-11-14T05:47:10;10.20;63.70
32147;DHT22;32190;49.112;8.598;2022-11-14T05:53:01;10.20;63.80
32147;DHT22;32190;49.112;8.598;2022-11-14T05:58:51;10.30;63.80
32147;DHT22;32190;49.112;8.598;2022-11-14T06:04:42;10.40;63.70
32147;DHT22;32190;49.112;8.598;2022-11-14T06:11:00;10.40;63.60
32147;DHT22;32190;49.112;8.598;2022-11-14T06:17:02;10.30;63.60
32147;DHT22;32190;49.112;8.598;2022-11-14T06:22:55;10.40;63.70
32147;DHT22;32190;49.112;8.598;2022-11-14T06:28:47;10.40;63.70
32147;DHT22;32190;49.112;8.598;2022-11-14T06:34:38;10.40;63.60
32147;DHT22;32190;49.112;8.598;2022-11-14T06:40:29;10.40;63.50
32147;DHT22;32190;49.112;8.598;2022-11-14T06:46:21;10.50;63.50
32147;DHT22;32190;49.112;8.598;2022-11-14T06:52:12;10.40;63.40
32147;DHT22;32190;49.112;8.598;2022-11-14T06:58:10;10.50;63.20
32147;DHT22;32190;49.112;8.598;2022-11-14T07:04:00;10.40;63.10
32147;DHT22;32190;49.112;8.598;2022-11-14T07:09:51;10.30;63.00
32147;DHT22;32190;49.112;8.598;2022-11-14T07:15:52;10.30;63.00
32147;DHT22;32190;49.112;8.598;2022-11-14T07:21:43;10.20;62.80
32147;DHT22;32190;49.112;8.598;2022-11-14T07:27:34;10.10;63.10
32147;DHT22;32190;49.112;8.598;2022-11-14T07:33:24;10.00;63.10
32147;DHT22;32190;49.112;8.598;2022-11-14T07:39:15;9.90;63.00
32147;DHT22;32190;49.112;8.598;2022-11-14T07:45:06;9.90;63.40
32147;DHT22;32190;49.112;8.598;2022-11-14T07:51:02;9.90;63.40
32147;DHT22;32190;49.112;8.598;2022-11-14T07:56:52;9.90;63.40
32147;DHT22;32190;49.112;8.598;2022-11-14T08:02:45;9.90;63.60
32147;DHT22;32190;49.112;8.598;2022-11-14T08:38:37;10.40;64.10
32147;DHT22;32190;49.112;8.598;2022-11-14T08:44:28;10.50;64.20
32147;DHT22;32190;49.112;8.598;2022-11-14T08:50:18;10.60;64.10
32147;DHT22;32190;49.112;8.598;2022-11-14T08:56:10;10.60;64.10
32147;DHT22;32190;49.112;8.598;2022-11-14T09:02:00;10.70;64.10
32147;DHT22;32190;49.112;8.598;2022-11-14T09:07:51;10.70;64.00
32147;DHT22;32190;49.112;8.598;2022-11-14T09:13:42;10.80;63.90
32147;DHT22;32190;49.112;8.598;2022-11-14T09:50:14;11.00;63.80
32147;DHT22;32190;49.112;8.598;2022-11-14T09:56:10;11.10;64.30
32147;DHT22;32190;49.112;8.598;2022-11-14T10:45:03;11.60;64.30
32147;DHT22;32190;49.112;8.598;2022-11-14T10:51:02;11.60;64.30
32147;DHT22;32190;49.112;8.598;2022-11-14T10:56:54;11.70;64.40
32147;DHT22;32190;49.112;8.598;2022-11-14T11:02:51;11.70;64.40
32147;DHT22;32190;49.112;8.598;2022-11-14T11:08:43;11.80;64.50
32147;DHT22;32190;49.112;8.598;2022-11-14T11:15:20;11.80;64.50
32147;DHT22;32190;49.112;8.598;2022-11-14T11:21:11;11.80;64.80
32147;DHT22;32190;49.112;8.598;2022-11-14T11:27:19;11.90;64.80
32147;DHT22;32190;49.112;8.598;2022-11-14T11:39:22;12.00;64.70
32147;DHT22;32190;49.112;8.598;2022-11-14T11:45:15;11.90;64.50
32147;DHT22;32190;49.112;8.598;2022-11-14T11:51:15;11.90;64.50
32147;DHT22;32190;49.112;8.598;2022-11-14T11:57:15;11.90;64.60
32147;DHT22;32190;49.112;8.598;2022-11-14T12:03:14;11.90;64.70
32147;DHT22;32190;49.112;8.598;2022-11-14T12:27:11;11.90;64.80
32147;DHT22;32190;49.112;8.598;2022-11-14T12:39:00;11.90;65.70
32147;DHT22;32190;49.112;8.598;2022-11-14T13:15:54;12.20;65.20
32147;DHT22;32190;49.112;8.598;2022-11-14T13:34:49;12.30;65.00
32147;DHT22;32190;49.112;8.598;2022-11-14T13:40:59;12.30;65.00
32147;DHT22;32190;49.112;8.598;2022-11-14T13:52:48;12.40;65.10
32147;DHT22;32190;49.112;8.598;2022-11-14T14:17:35;12.60;65.40
32147;DHT22;32190;49.112;8.598;2022-11-14T14:23:36;12.70;65.00
32147;DHT22;32190;49.112;8.598;2022-11-14T14:29:37;12.80;64.80
32147;DHT22;32190;49.112;8.598;2022-11-14T14:35:32;12.80;65.00
32147;DHT22;32190;49.112;8.598;2022-11-14T14:41:23;12.80;64.90
32147;DHT22;32190;49.112;8.598;2022-11-14T14:53:25;12.90;65.00
32147;DHT22;32190;49.112;8.598;2022-11-14T14:59:22;13.10;64.90
32147;DHT22;32190;49.112;8.598;2022-11-14T15:05:35;13.30;64.60
32147;DHT22;32190;49.112;8.598;2022-11-14T15:18:30;13.40;64.00
32147;DHT22;32190;49.112;8.598;2022-11-14T15:24:22;13.60;64.00
32147;DHT22;32190;49.112;8.598;2022-11-14T15:30:22;13.60;64.10
32147;DHT22;32190;49.112;8.598;2022-11-14T15:36:15;13.70;63.90
32147;DHT22;32190;49.112;8.598;2022-11-14T15:42:12;13.80;64.00
32147;DHT22;32190;49.112;8.598;2022-11-14T15:48:14;13.90;64.00
32147;DHT22;32190;49.112;8.598;2022-11-14T16:00:14;14.00;63.30
32147;DHT22;32190;49.112;8.598;2022-11-14T16:06:05;14.10;63.50
32147;DHT22;32190;49.112;8.598;2022-11-14T16:11:55;14.20;63.20
32147;DHT22;32190;49.112;8.598;2022-11-14T16:17:47;14.30;63.00
32147;DHT22;32190;49.112;8.598;2022-11-14T16:23:38;14.30;62.80
32147;DHT22;32190;49.112;8.598;2022-11-14T17:00:07;14.00;62.00
32147;DHT22;32190;49.112;8.598;2022-11-14T17:05:58;13.80;62.30
32147;DHT22;32190;49.112;8.598;2022-11-14T17:11:48;13.70;62.50
32147;DHT22;32190;49.112;8.598;2022-11-14T17:17:39;13.70;62.70
32147;DHT22;32190;49.112;8.598;2022-11-14T17:23:29;13.60;62.80
32147;DHT22;32190;49.112;8.598;2022-11-14T17:29:20;13.60;62.80
32147;DHT22;32190;49.112;8.598;2022-11-14T17:35:10;13.70;62.90
32147;DHT22;32190;49.112;8.598;2022-11-14T17:41:02;13.70;62.80
32147;DHT22;32190;49.112;8.598;2022-11-14T17:46:55;13.70;62.80
32147;DHT22;32190;49.112;8.598;2022-11-14T17:53:03;13.70;62.90
32147;DHT22;32190;49.112;8.598;2022-11-14T17:59:05;13.70;63.00
32147;DHT22;32190;49.112;8.598;2022-11-14T18:04:58;13.70;62.90
32147;DHT22;32190;49.112;8.598;2022-11-14T18:10:59;13.70;63.10
32147;DHT22;32190;49.112;8.598;2022-11-14T18:16:50;13.70;63.30
32147;DHT22;32190;49.112;8.598;2022-11-14T18:22:48;13.70;63.30
32147;DHT22;32190;49.112;8.598;2022-11-14T18:28:42;13.70;63.50
32147;DHT22;32190;49.112;8.598;2022-11-14T18:34:33;13.70;63.40
32147;DHT22;32190;49.112;8.598;2022-11-14T18:40:41;13.60;63.50
32147;DHT22;32190;49.112;8.598;2022-11-14T18:46:35;13.60;63.60
32147;DHT22;32190;49.112;8.598;2022-11-14T18:52:31;13.60;63.70
32147;DHT22;32190;49.112;8.598;2022-11-14T18:58:32;13.60;63.70
32147;DHT22;32190;49.112;8.598;2022-11-14T20:33:55;13.40;64.10
32147;DHT22;32190;49.112;8.598;2022-11-14T20:39:49;13.40;63.90
32147;DHT22;32190;49.112;8.598;2022-11-14T20:52:15;13.40;64.10
32147;DHT22;32190;49.112;8.598;2022-11-14T20:58:10;13.50;64.20
32147;DHT22;32190;49.112;8.598;2022-11-14T21:04:01;13.40;63.90
32147;DHT22;32190;49.112;8.598;2022-11-14T21:09:52;13.50;64.10
32147;DHT22;32190;49.112;8.598;2022-11-14T21:22:20;13.50;64.10
32147;DHT22;32190;49.112;8.598;2022-11-14T21:28:11;13.50;64.10
32147;DHT22;32190;49.112;8.598;2022-11-14T23:40:15;13.00;64.70
32147;DHT22;32190;49.112;8.598;2022-11-14T23:46:05;13.00;64.70
32147;DHT22;32190;49.112;8.598;2022-11-14T23:51:56;13.00;64.60
32147;DHT22;32190;49.112;8.598;2022-11-14T23:57:49;13.10;64.70
